TOURFACTS.DK  
Stats and Facts from Tour de France.

Tour de France 2018 starts in 349 days
  Riders   Stages   Teams   Summits   Yearly  


 
Search by year

 2017 - St. 18:  14824 starters.
  5131 different riders.
  634 teams.
  2229 stages.
  454 restdays.
  439241.60 km.
  5651 abandonnees.


Top 3
Christopher Froome89:04:48
Romain Bardet89:08:53
Nairo Quintana89:09:09
Rafal Majka209 pt.
Thomas De Gendt130 pt.
Jarlinson Pantano ..121 pt.
Peter Sagan470 pt.
Marcel Kittel228 pt.
Michael Matthews199 pt.
Adam Yates89:09:30
Louis Meintjes89:11:46
Emanuel Buchmann89:52:28
Facts from Tour de France 2016
  |   Stages.  |   Stage winners.  |   Days in yellow  |   Average speed.  |   Route.  |   Teams.  |   All riders.  |   Rookies.  |   Withdrawls.  |  

  |   GC.  |   Polka  |   Green  |   White  |   Summits. (In tour)  |   Summits. (Points)  |   Miscellaneous.  |  

Stage 21 on 24 - 07 - 2016
         Owning:    Christopher Froome      Rafal Majka      Peter Sagan      Adam Yates  

Pick a stage:  1 2 3 4 5 6 7 8 9 10 11 12 13 14 15 16 17 18 19 20 21
  ChantillyChamps-Élysées | Dist: 113.00 km.
Cat: 4Côte de l'ErmitageCZERoman Kreuziger1 points 

Average speed for all riders in stage:  41,310 km./hr.
    Place:Name:Team:Time:Km/h:
GERAndré GreipelBELLotto Soudal02:43:08  +  00:00:00=41,561 
SVKPeter SaganRUSTinkoff02:43:08  +  00:00:00=41,561 
NORAlexander KristoffRUSTeam Katusha02:43:08  +  00:00:00=41,561 
4 NOREdvald Boasson HagenZAFDimension Data02:43:08  +  00:00:00=41,561 
5 AUSMichael MatthewsAUSORICA BikeExchange02:43:08  +  00:00:00=41,561 
6 BELJasper StuyvenUSATrek – Segafredo02:43:08  +  00:00:00=41,561 
7 URSRamunas NavardauskasUSATeam Cannondale Drapac02:43:08  +  00:00:00=41,561 
8 FRAChristophe LaporteFRACofidis – Solutions Crédits02:43:08  +  00:00:00=41,561 
9 BELSam BennettDEUBora-Argon 1802:43:08  +  00:00:00=41,561 
10 RSAReinardt Janse Van RensburgZAFDimension Data02:43:08  +  00:00:00=41,561 
11 ITADavide CimolaiITALampre-Merida02:43:08  +  00:00:00=41,561 
12 ENGDaniel McLayFRAFortuneo - Vital Concept02:43:08  +  00:00:00=41,561 
13 AUSLeigh HowardCHEIAM Cycling02:43:08  +  00:00:00=41,561 
14 BRAMaximilano RichezeBELEtixx - Quick Step02:43:08  +  00:00:00=41,561 
15 FRAAnthony RouxFRAFDJ02:43:08  +  00:00:00=41,561 
16 GERJohn DegenkolbDEUTeam Giant Alpecin02:43:08  +  00:00:00=41,561 
17 NEDRamon SinkeldamDEUTeam Giant Alpecin02:43:08  +  00:00:00=41,561 
18 BELSep VanmarckeNLDTeam Lotto NL - Jumbo02:43:08  +  00:00:00=41,561 
19 DENMichael ValgrenRUSTinkoff02:43:08  +  00:00:00=41,561 
20 ESPAlejandro ValverdeESPMovistar Team02:43:08  +  00:00:00=41,561 
21 UKRAndriy GrivkoKAZAstana Pro Team02:43:08  +  00:00:00=41,561 
22 CZERoman KreuzigerRUSTinkoff02:43:08  +  00:00:00=41,561 
23 FRAGeoffrey SoupeFRACofidis – Solutions Crédits02:43:08  +  00:00:00=41,561 
24 ITAOscar GattoRUSTinkoff02:43:08  +  00:00:00=41,561 
25 ENGDaniel MartinBELEtixx - Quick Step02:43:08  +  00:00:00=41,561 
26 ITAJacopo GuarnieriRUSTeam Katusha02:43:08  +  00:00:00=41,561 
27 FRAArthur VichotFRAFDJ02:43:08  +  00:00:00=41,561 
28 COLNairo QuintanaESPMovistar Team02:43:08  +  00:00:00=41,561 
29 BELJürgen RoelandtsBELLotto Soudal02:43:08  +  00:00:00=41,561 
30 NEDStef ClementCHEIAM Cycling02:43:08  +  00:00:00=41,561 
31 FRARomain BardetFRAAg2r La Mondiale02:43:08  +  00:00:00=41,561 
32 ITADiego RosaKAZAstana Pro Team02:43:08  +  00:00:00=41,561 
33 AUSRichie PorteUSABMC Racing Team02:43:08  +  00:00:00=41,561 
34 ENGAdam YatesAUSORICA BikeExchange02:43:08  +  00:00:00=41,561 
35 RSALouis MeintjesITALampre-Merida02:43:08  +  00:00:00=41,561 
36 ESPMarkel IrizarUSATrek – Segafredo02:43:18  +  00:00:10=41,519 
37 NEDDylan Van BaarleUSATeam Cannondale Drapac02:43:18  +  00:00:10=41,519 
38 FRAAdrien PetitFRADirect Energie02:43:25  +  00:00:17=41,489 
39 POLMaciej BodnarRUSTinkoff02:43:25  +  00:00:17=41,489 
40 ITAFabio SabatiniBELEtixx - Quick Step02:43:29  +  00:00:21=41,472 
41 GERMarcel SiebergBELLotto Soudal02:43:31  +  00:00:23=41,464 
42 FRATony GallopinBELLotto Soudal02:43:31  +  00:00:23=41,464 
43 NEDRoy CurversDEUTeam Giant Alpecin02:43:33  +  00:00:25=41,455 
44 FRACyril GautierFRAAg2r La Mondiale02:43:33  +  00:00:25=41,455 
45 SUIMichael AlbasiniAUSORICA BikeExchange02:43:33  +  00:00:25=41,455 
46 ESPAngel ViciosoRUSTeam Katusha02:43:39  +  00:00:31=41,430 
47 ESPHaimar ZubeldiaUSATrek – Segafredo02:43:39  +  00:00:31=41,430 
48 ESPAlberto LosadaRUSTeam Katusha02:43:39  +  00:00:31=41,430 
49 SUISébastien ReichenbachFRAFDJ02:43:39  +  00:00:31=41,430 
50 FRAPierre RollandUSATeam Cannondale Drapac02:43:39  +  00:00:31=41,430 
51 LUXFränk SchleckUSATrek – Segafredo02:43:39  +  00:00:31=41,430 
52 ESPJoaquim RodriguezRUSTeam Katusha02:43:39  +  00:00:31=41,430 
53 JPNYukiya ArashiroITALampre-Merida02:43:39  +  00:00:31=41,430 
54 ITADomenico PozzovivoFRAAg2r La Mondiale02:43:39  +  00:00:31=41,430 
55 GEREmanuel BuchmannDEUBora-Argon 1802:43:39  +  00:00:31=41,430 
56 SUIMichael SchärUSABMC Racing Team02:43:39  +  00:00:31=41,430 
57 USABrent BookwalterUSABMC Racing Team02:43:39  +  00:00:31=41,430 
58 GERPaul MartensNLDTeam Lotto NL - Jumbo02:43:39  +  00:00:31=41,430 
59 ITAFabio AruKAZAstana Pro Team02:43:39  +  00:00:31=41,430 
60 AUTBernhard EiselZAFDimension Data02:43:44  +  00:00:36=41,409 
61 GERMarcel KittelBELEtixx - Quick Step02:43:46  +  00:00:38=41,400 
62 ITAMatteo TosattoRUSTinkoff02:43:46  +  00:00:38=41,400 
63 FRAPierre-Luc PérichonFRAFortuneo - Vital Concept02:43:48  +  00:00:40=41,392 
64 AUSAdam HansenBELLotto Soudal02:43:49  +  00:00:41=41,388 
65 NZLGregory HendersonBELLotto Soudal02:43:49  +  00:00:41=41,388 
66 BELJulien VermoteBELEtixx - Quick Step02:43:51  +  00:00:43=41,379 
67 BELIljo KeisseBELEtixx - Quick Step02:43:51  +  00:00:43=41,379 
68 FRAJulian AlaphilippeBELEtixx - Quick Step02:43:53  +  00:00:45=41,371 
69 DENChris Anker SørensenFRAFortuneo - Vital Concept02:43:53  +  00:00:45=41,371 
70 BELJan BakelantsFRAAg2r La Mondiale02:43:53  +  00:00:45=41,371 
71 FRAAlexis VuillermozFRAAg2r La Mondiale02:43:53  +  00:00:45=41,371 
72 ESPImanol ErvitiESPMovistar Team02:43:53  +  00:00:45=41,371 
73 LUXBen GastauerFRAAg2r La Mondiale02:43:53  +  00:00:45=41,371 
74 FRASamuel DumoulinFRAAg2r La Mondiale02:43:53  +  00:00:45=41,371 
75 FRAMickaël CherelFRAAg2r La Mondiale02:43:53  +  00:00:45=41,371 
76 FRAFlorian VachonFRAFortuneo - Vital Concept02:43:53  +  00:00:45=41,371 
77 COLWinner AnaconaESPMovistar Team02:43:53  +  00:00:45=41,371 
78 USAPeter StetinaUSATrek – Segafredo02:43:53  +  00:00:45=41,371 
79 SLOJan PolancITALampre-Merida02:43:53  +  00:00:45=41,371 
80 HRVKristijan DurasekITALampre-Merida02:43:53  +  00:00:45=41,371 
81 FRAArmindo FonsecaFRAFortuneo - Vital Concept02:43:53  +  00:00:45=41,371 
82 FRAAnthony DelaplaceFRAFortuneo - Vital Concept02:43:53  +  00:00:45=41,371 
83 BELSerge PauwelsZAFDimension Data02:43:53  +  00:00:45=41,371 
84 ESPJon Izaguirre InsaustiESPMovistar Team02:43:53  +  00:00:45=41,371 
85 URSTanel KangertKAZAstana Pro Team02:43:53  +  00:00:45=41,371 
86 FRAWarren BarguilDEUTeam Giant Alpecin02:43:53  +  00:00:45=41,371 
87 USATejay Van GarderenUSABMC Racing Team02:43:53  +  00:00:45=41,371 
88 AUTPatrick KonradDEUBora-Argon 1802:43:53  +  00:00:45=41,371 
89 AUTGeorg PreidlerDEUTeam Giant Alpecin02:43:53  +  00:00:45=41,371 
90 ERIDaniel TeklehaimanotZAFDimension Data02:43:53  +  00:00:45=41,371 
91 FRAAmaël MoinardUSABMC Racing Team02:43:53  +  00:00:45=41,371 
92 ITACesare BenedettiDEUBora-Argon 1802:43:53  +  00:00:45=41,371 
93 CZEJan BártaDEUBora-Argon 1802:43:53  +  00:00:45=41,371 
94 POLRafal MajkaRUSTinkoff02:43:53  +  00:00:45=41,371 
95 SLOKristjan KorenUSATeam Cannondale Drapac02:43:53  +  00:00:45=41,371 
96 ITADamiano CarusoUSABMC Racing Team02:43:53  +  00:00:45=41,371 
97 SLOLuka PibernikITALampre-Merida02:43:53  +  00:00:45=41,371 
102 SUISteve MorabitoFRAFDJ02:43:53  +  00:00:45=41,371 
103 FRAWilliam BonnetFRAFDJ02:43:53  +  00:00:45=41,371 
104 FRAJérémy RoyFRAFDJ02:43:53  +  00:00:45=41,371 
105 ESPDaniel MorenoESPMovistar Team02:43:53  +  00:00:45=41,371 
106 FRAJérôme CoppelCHEIAM Cycling02:43:53  +  00:00:45=41,371 
107 ESPLuis Angel MateFRACofidis – Solutions Crédits02:43:53  +  00:00:45=41,371 
108 ARGEduardo SepulvedaFRAFortuneo - Vital Concept02:43:53  +  00:00:45=41,371 
109 GERAndreas SchillingerDEUBora-Argon 1802:43:53  +  00:00:45=41,371 
110 ESPRubén PlazaAUSORICA BikeExchange02:43:53  +  00:00:45=41,371 
111 RSADaryl ImpeyAUSORICA BikeExchange02:43:53  +  00:00:45=41,371 
112 ENGStephen CummingsZAFDimension Data02:43:53  +  00:00:45=41,371 
113 BELGreg Van AvermaetUSABMC Racing Team02:43:53  +  00:00:45=41,371 
114 IRLChristopher Juul JensenAUSORICA BikeExchange02:43:53  +  00:00:45=41,371 
115 AUSLuke DurbridgeAUSORICA BikeExchange02:43:53  +  00:00:45=41,371 
116 NEDTom-Jelte SlagterUSATeam Cannondale Drapac02:43:53  +  00:00:45=41,371 
117 ITAPaolo TiralongoKAZAstana Pro Team02:43:53  +  00:00:45=41,371 
118 ITAVincenzo NibaliKAZAstana Pro Team02:43:53  +  00:00:45=41,371 
119 ESPLuis León SánchezKAZAstana Pro Team02:43:53  +  00:00:45=41,371 
120 SUIMartin ElmigerCHEIAM Cycling02:43:53  +  00:00:45=41,371 
121 NEDWilco KeldermanNLDTeam Lotto NL - Jumbo02:43:53  +  00:00:45=41,371 
122 USAAlex HowesUSATeam Cannondale Drapac02:43:53  +  00:00:45=41,371 
123 FRABrice FeilluFRAFortuneo - Vital Concept02:43:53  +  00:00:45=41,371 
124 ITAMatteo BonoITALampre-Merida02:43:53  +  00:00:45=41,371 
125 BELMaarten WynantsNLDTeam Lotto NL - Jumbo02:43:53  +  00:00:45=41,371 
126 HRVRobert KiserlovskiRUSTinkoff02:43:53  +  00:00:45=41,371 
127 RUSIlnur ZakarinRUSTeam Katusha02:43:53  +  00:00:45=41,371 
128 SUIJakob FuglsangKAZAstana Pro Team02:43:53  +  00:00:45=41,371 
129 NEDAlbert TimmerDEUTeam Giant Alpecin02:43:53  +  00:00:45=41,371 
130 FRA Alexis GougeardFRAAg2r La Mondiale02:43:53  +  00:00:45=41,371 
131 FRASylvain ChavanelFRADirect Energie02:43:53  +  00:00:45=41,371 
98 COLJarlinson Pantano GomezCHEIAM Cycling02:44:00  +  00:00:52=41,341 
99 CANAntoine DuchesneFRADirect Energie02:44:02  +  00:00:54=41,333 
100 PORNelson OliveiraESPMovistar Team02:44:02  +  00:00:54=41,333 
101 POLBartosz HuzarskiDEUBora-Argon 1802:44:05  +  00:00:57=41,320 
132 WALGeraint ThomasGBRSky Procycling02:44:21  +  00:01:13=41,253 
133 NEDWout PoelsGBRSky Procycling02:44:21  +  00:01:13=41,253 
134 COLSergio Luis HenaoGBRSky Procycling02:44:21  +  00:01:13=41,253 
135 ESPMikel Landa MeanaGBRSky Procycling02:44:21  +  00:01:13=41,253 
136 ESPMikel NieveGBRSky Procycling02:44:21  +  00:01:13=41,253 
137 WALLuke RoweGBRSky Procycling02:44:21  +  00:01:13=41,253 
138 KENChristopher FroomeGBRSky Procycling02:44:21  +  00:01:13=41,253 
139 BLRVasil KiryienkaGBRSky Procycling02:44:21  +  00:01:13=41,253 
140 ENGIan StannardGBRSky Procycling02:44:21  +  00:01:13=41,253 
141 AUTMarco HallerRUSTeam Katusha02:44:21  +  00:01:13=41,253 
142 FRANicolas EdetFRACofidis – Solutions Crédits02:44:32  +  00:01:24=41,207 
143 FRAArnold JeannessonFRACofidis – Solutions Crédits02:44:32  +  00:01:24=41,207 
144 PORRui CostaITALampre-Merida02:44:40  +  00:01:32=41,174 
145 NEDBauke MollemaUSATrek – Segafredo02:44:41  +  00:01:33=41,170 
146 SUIGregory RastUSATrek – Segafredo02:44:41  +  00:01:33=41,170 
147 GERPaul VossDEUBora-Argon 1802:44:42  +  00:01:34=41,166 
148 FRACyril LemoineFRACofidis – Solutions Crédits02:44:55  +  00:01:47=41,112 
149 CZEPetr VakocBELEtixx - Quick Step02:45:08  +  00:02:00=41,058 
150 ETHTsgabu Gebremaryan GrmayITALampre-Merida02:45:08  +  00:02:00=41,058 
151 KAZAlexey LutsenkoKAZAstana Pro Team02:45:11  +  00:02:03=41,045 
152 FRAJérôme CousinFRACofidis – Solutions Crédits02:45:11  +  00:02:03=41,045 
153 DENLars BakBELLotto Soudal02:45:18  +  00:02:10=41,016 
154 BELThomas De GendtBELLotto Soudal02:45:18  +  00:02:10=41,016 
155 GERRobert WagnerNLDTeam Lotto NL - Jumbo02:45:18  +  00:02:10=41,016 
156 NZLGeorge BennettNLDTeam Lotto NL - Jumbo02:45:18  +  00:02:10=41,016 
157 ERINatnael Teweldemedhin BerhaneZAFDimension Data02:45:23  +  00:02:15=40,996 
158 SUIReto HollensteinCHEIAM Cycling02:45:25  +  00:02:17=40,987 
159 NEDLaurens ten DamDEUTeam Giant Alpecin02:45:48  +  00:02:40=40,893 
160 NORSondre Holst EngerCHEIAM Cycling02:45:52  +  00:02:44=40,876 
161 GERSimon GeschkeDEUTeam Giant Alpecin02:45:53  +  00:02:45=40,872 
162 NEDBert-Jan LindemanNLDTeam Lotto NL - Jumbo02:45:56  +  00:02:48=40,860 
163 GERMarcus BurghardtUSABMC Racing Team02:46:04  +  00:02:56=40,827 
164 NEDDylan GroenewegenNLDTeam Lotto NL - Jumbo02:46:39  +  00:03:31=40,684 
165 AUSMathew HaymanAUSORICA BikeExchange02:46:42  +  00:03:34=40,672 
166 FRAYohann GèneFRADirect Energie02:47:10  +  00:04:02=40,558 
167 FRAThomas VoecklerFRADirect Energie02:47:17  +  00:04:09=40,530 
168 FRABryan CoquardFRADirect Energie02:47:17  +  00:04:09=40,530 
169 NEDTimo RoosenNLDTeam Lotto NL - Jumbo02:47:26  +  00:04:18=40,494 
170 USALawson CraddockUSATeam Cannondale Drapac02:47:40  +  00:04:32=40,437 
171 BELOliver NaesenCHEIAM Cycling02:47:42  +  00:04:34=40,429 
172 FRARomain SicardFRADirect Energie02:48:09  +  00:05:01=40,321 
173 FRAFabrice JeandesbozFRADirect Energie02:48:10  +  00:05:02=40,317 
174 NORVegard BreenFRAFortuneo - Vital Concept02:50:25  +  00:07:17=39,785 

Withdrawls: 1
 
Rider
Team
Reason
185  GERTony MartinBELEtixx - Quick StepDid not finish

Todays birthdays.

1889  Arthur Godart
1901  Félix Baud
1904  Fernand Fayolle
1921  Pietro Giudici
1932  Félix Le Buhotel
1932  Piet Van Den Brekel
1954  Hennie Stamsnijder
1965  Francis Moreau
1980  Andrey Kashechkin
1981  Stefan Schumacher